createdAt,value
2019-02-12T00:04:28.701Z,79.62
2019-02-12T00:09:32.812Z,79.45
2019-02-12T00:14:36.896Z,80.87
2019-02-12T00:19:40.987Z,80.33
2019-02-12T00:24:45.061Z,79.77
2019-02-12T00:29:49.152Z,79.40
2019-02-12T00:34:53.191Z,80.05
2019-02-12T00:39:57.370Z,80.08
2019-02-12T00:45:01.479Z,79.36
2019-02-12T00:50:06.168Z,79.42
2019-02-12T00:55:10.300Z,80.84
2019-02-12T01:00:14.463Z,80.34
2019-02-12T01:05:18.492Z,80.90
2019-02-12T01:10:23.461Z,81.39
2019-02-12T01:15:27.787Z,82.32
2019-02-12T01:20:31.812Z,82.44
2019-02-12T01:25:35.900Z,82.83
2019-02-12T01:30:39.981Z,82.85
2019-02-12T01:35:44.140Z,84.05
2019-02-12T01:40:48.208Z,82.42
2019-02-12T01:45:52.273Z,81.80
2019-02-12T01:50:56.381Z,81.39
2019-02-12T01:56:00.393Z,80.05
2019-02-12T02:01:04.419Z,80.00
2019-02-12T02:06:08.786Z,79.86
2019-02-12T02:11:12.847Z,79.66
2019-02-12T02:16:16.925Z,80.65
2019-02-12T02:21:20.993Z,81.04
2019-02-12T02:26:25.364Z,80.90
2019-02-12T02:31:29.472Z,80.34
2019-02-12T02:36:33.568Z,80.64
2019-02-12T02:41:37.639Z,81.41
2019-02-12T02:46:41.963Z,82.76
2019-02-12T02:51:53.738Z,83.89
2019-02-12T02:56:52.141Z,83.79
2019-02-12T03:01:56.199Z,84.14
2019-02-12T03:07:00.246Z,83.55
2019-02-12T03:12:04.292Z,82.64
2019-02-12T03:17:08.360Z,83.03
2019-02-12T03:22:12.450Z,83.13
2019-02-12T03:27:16.815Z,84.06
2019-02-12T03:32:20.948Z,84.28
2019-02-12T03:37:25.008Z,83.04
2019-02-12T03:42:29.137Z,82.95
2019-02-12T03:47:33.133Z,83.12
2019-02-12T03:52:37.260Z,83.68
2019-02-12T03:57:41.376Z,84.07
2019-02-12T04:02:59.796Z,84.71
2019-02-12T04:08:04.275Z,84.92
2019-02-12T04:13:08.321Z,86.35
2019-02-12T04:18:12.698Z,87.62
2019-02-12T04:23:18.951Z,87.71
2019-02-12T04:28:23.100Z,88.08
2019-02-12T04:33:27.218Z,88.65
2019-02-12T04:38:31.298Z,88.64
2019-02-12T04:43:35.674Z,88.71
2019-02-12T04:48:39.901Z,89.17
2019-02-12T04:53:44.087Z,89.38
2019-02-12T04:58:48.106Z,89.62
2019-02-12T05:03:52.478Z,89.86
2019-02-12T05:09:19.443Z,90.99
2019-02-12T05:14:23.614Z,91.11
2019-02-12T05:19:27.811Z,90.57
2019-02-12T05:24:31.870Z,90.46
2019-02-12T05:29:36.176Z,90.09
2019-02-12T05:34:40.250Z,89.86
2019-02-12T05:39:44.301Z,90.88
2019-02-12T05:44:48.341Z,93.28
2019-02-12T05:49:52.614Z,93.84
2019-02-12T05:54:56.926Z,94.57
2019-02-12T06:00:01.250Z,93.42
2019-02-12T06:05:05.581Z,92.06
2019-02-12T06:10:10.345Z,88.79
2019-02-12T06:15:14.667Z,89.39
2019-02-12T06:20:18.768Z,89.08
2019-02-12T06:25:22.872Z,88.87
2019-02-12T06:30:26.984Z,88.46
2019-02-12T06:35:31.094Z,88.07
2019-02-12T06:40:35.158Z,87.18
2019-02-12T06:45:39.249Z,87.36
2019-02-12T06:50:43.317Z,86.13
2019-02-12T06:55:47.600Z,85.58
2019-02-12T07:00:51.802Z,86.61
2019-02-12T07:06:00.688Z,86.61
2019-02-12T07:11:17.384Z,85.43
2019-02-12T07:16:56.954Z,86.40
2019-02-12T07:22:46.288Z,84.84
2019-02-12T07:28:34.375Z,84.86
2019-02-12T07:34:21.270Z,84.53
2019-02-12T07:39:57.570Z,83.08
2019-02-12T07:45:27.678Z,84.68
2019-02-12T07:50:58.256Z,84.37
2019-02-12T07:56:22.250Z,84.96
2019-02-12T08:02:12.151Z,85.38
2019-02-12T08:07:55.919Z,83.61
2019-02-12T08:13:28.983Z,81.96
2019-02-12T08:19:05.529Z,81.07
2019-02-12T08:24:53.567Z,81.21
2019-02-12T08:30:29.944Z,79.67
2019-02-12T08:36:07.713Z,79.61
2019-02-12T08:41:37.680Z,79.07
2019-02-12T08:47:28.602Z,77.58
2019-02-12T08:53:12.396Z,77.77
2019-02-12T08:58:34.680Z,77.82
2019-02-12T09:04:15.989Z,77.59
2019-02-12T09:10:02.770Z,76.38
2019-02-12T09:15:39.305Z,76.99
2019-02-12T09:21:00.380Z,75.29
2019-02-12T09:26:35.955Z,76.07
2019-02-12T09:32:22.970Z,75.53
2019-02-12T09:38:10.569Z,75.46
2019-02-12T09:43:25.968Z,73.43
2019-02-12T09:49:16.916Z,72.32
2019-02-12T09:54:48.298Z,72.44
2019-02-12T10:00:29.629Z,72.63
2019-02-12T10:06:22.861Z,73.38
2019-02-12T10:12:07.018Z,72.40
2019-02-12T10:17:42.256Z,72.47
2019-02-12T10:23:00.076Z,72.97
2019-02-12T10:28:48.655Z,72.96
2019-02-12T10:33:46.117Z,71.22
2019-02-12T10:38:50.407Z,69.73
2019-02-12T10:43:54.418Z,67.70
2019-02-12T10:48:58.552Z,66.22
2019-02-12T10:54:02.915Z,61.28
2019-02-12T10:59:06.981Z,64.54
2019-02-12T11:04:11.074Z,65.71
2019-02-12T11:09:15.138Z,69.00
2019-02-12T11:14:19.250Z,69.76
2019-02-12T11:19:23.506Z,68.56
2019-02-12T11:24:35.248Z,62.01
2019-02-12T11:29:34.426Z,59.88
2019-02-12T11:34:38.563Z,61.44
2019-02-12T11:39:43.031Z,54.94
2019-02-12T11:44:47.102Z,54.88
2019-02-12T11:49:51.338Z,57.17
2019-02-12T11:54:56.588Z,58.39
2019-02-12T12:00:00.698Z,58.26
2019-02-12T12:05:05.086Z,57.35
2019-02-12T12:10:09.497Z,60.34
2019-02-12T12:15:13.657Z,61.59
2019-02-12T12:20:18.939Z,58.82
2019-02-12T12:25:23.294Z,53.15
2019-02-12T12:30:27.454Z,52.66
2019-02-12T12:35:32.017Z,52.48
2019-02-12T12:40:36.231Z,51.52
2019-02-12T12:45:40.651Z,51.59
2019-02-12T12:50:44.695Z,52.44
2019-02-12T12:55:49.253Z,55.14
2019-02-12T13:00:53.404Z,55.17
2019-02-12T13:05:57.712Z,55.21
2019-02-12T13:11:01.795Z,54.12
2019-02-12T13:16:06.193Z,53.41
2019-02-12T13:21:10.245Z,54.92
2019-02-12T13:26:14.399Z,55.59
2019-02-12T13:31:19.035Z,56.53
2019-02-12T13:36:23.086Z,56.46
2019-02-12T13:41:27.265Z,55.57
2019-02-12T13:46:31.324Z,55.61
2019-02-12T13:51:35.412Z,53.51
2019-02-12T13:56:39.643Z,52.36
2019-02-12T14:01:43.745Z,52.00
2019-02-12T14:06:47.798Z,52.41
2019-02-12T14:11:51.927Z,53.26
2019-02-12T14:16:56.035Z,55.67
2019-02-12T14:22:00.114Z,55.92
2019-02-12T14:27:04.247Z,54.47
2019-02-12T14:32:08.612Z,52.46
2019-02-12T14:37:12.818Z,52.12
2019-02-12T14:42:16.959Z,51.79
2019-02-12T14:47:24.447Z,51.45
2019-02-12T14:52:29.178Z,52.15
2019-02-12T14:57:33.550Z,52.43
2019-02-12T15:02:38.155Z,52.90
2019-02-12T15:07:42.538Z,53.47
2019-02-12T15:12:46.864Z,54.17
2019-02-12T15:17:51.486Z,55.28
2019-02-12T15:23:14.439Z,56.50
2019-02-12T15:28:18.501Z,56.88
2019-02-12T15:33:22.907Z,58.68
2019-02-12T15:38:27.241Z,57.81
2019-02-12T15:43:31.645Z,58.77
2019-02-12T15:48:35.950Z,59.86
2019-02-12T15:53:40.125Z,59.03
2019-02-12T15:58:44.356Z,59.90
2019-02-12T16:03:48.588Z,61.33
2019-02-12T16:08:53.971Z,60.50
2019-02-12T16:13:58.790Z,61.06
2019-02-12T16:19:03.078Z,61.84
2019-02-12T16:24:07.347Z,61.96
2019-02-12T16:29:12.113Z,62.95
2019-02-12T16:34:16.213Z,63.89
2019-02-12T16:39:20.648Z,65.26
2019-02-12T16:44:26.754Z,66.71
2019-02-12T16:49:34.486Z,69.28
2019-02-12T16:54:38.640Z,69.24
2019-02-12T16:59:43.170Z,69.18
2019-02-12T17:04:47.208Z,70.60
2019-02-12T17:09:54.906Z,71.33
2019-02-12T17:14:59.028Z,71.78
2019-02-12T17:20:03.226Z,72.67
2019-02-12T17:25:08.647Z,73.43
2019-02-12T17:30:16.950Z,74.99
2019-02-12T17:35:21.157Z,76.50
2019-02-12T17:40:25.215Z,77.45
2019-02-12T17:45:29.351Z,77.73
2019-02-12T17:50:33.512Z,78.09
2019-02-12T17:55:37.801Z,78.57
2019-02-12T18:00:41.969Z,79.75
2019-02-12T18:05:46.077Z,81.37
2019-02-12T18:10:55.718Z,82.82
2019-02-12T18:16:00.641Z,83.63
2019-02-12T18:21:05.037Z,84.50
2019-02-12T18:26:09.340Z,84.73
2019-02-12T18:31:13.409Z,85.02
2019-02-12T18:36:17.519Z,84.69
2019-02-12T18:41:21.515Z,85.57
2019-02-12T18:46:26.751Z,85.48
2019-02-12T18:51:31.154Z,85.71
2019-02-12T18:56:41.438Z,86.26
2019-02-12T19:01:41.010Z,86.42
2019-02-12T19:06:47.229Z,86.29
2019-02-12T19:11:54.308Z,86.99
2019-02-12T19:16:57.037Z,88.12
2019-02-12T19:22:01.126Z,86.71
2019-02-12T19:27:05.169Z,86.48
2019-02-12T19:32:09.326Z,87.19
2019-02-12T19:37:13.437Z,87.56
2019-02-12T19:42:17.666Z,88.66
2019-02-12T19:47:21.879Z,89.11
2019-02-12T19:52:26.764Z,89.62
2019-02-12T19:57:30.779Z,90.65
2019-02-12T20:02:39.245Z,90.43
2019-02-12T20:07:44.187Z,91.11
2019-02-12T20:12:48.293Z,91.30
2019-02-12T20:17:53.040Z,91.13
2019-02-12T20:22:57.172Z,91.41
2019-02-12T20:28:01.338Z,91.48
2019-02-12T20:33:05.711Z,91.87
2019-02-12T20:38:10.843Z,92.18
2019-02-12T20:43:15.491Z,92.77
2019-02-12T20:48:20.063Z,91.72
2019-02-12T20:53:24.222Z,91.21
2019-02-12T20:58:28.290Z,91.10
2019-02-12T21:03:32.444Z,90.76
2019-02-12T21:08:39.679Z,90.40
2019-02-12T21:13:48.496Z,89.96
2019-02-12T21:18:52.552Z,90.34
2019-02-12T21:24:00.565Z,90.99
2019-02-12T21:29:05.507Z,91.56
2019-02-12T21:34:09.761Z,92.05
2019-02-12T21:39:14.363Z,93.41
2019-02-12T21:44:18.500Z,94.29
2019-02-12T21:49:22.676Z,93.05
2019-02-12T21:54:27.031Z,92.58
2019-02-12T21:59:31.105Z,92.50
2019-02-12T22:04:35.304Z,91.94
2019-02-12T22:09:39.824Z,91.80
2019-02-12T22:14:44.155Z,91.24
2019-02-12T22:19:48.220Z,90.45
2019-02-12T22:24:52.368Z,89.44
2019-02-12T22:29:56.452Z,90.14
2019-02-12T22:35:00.535Z,91.15
2019-02-12T22:40:05.251Z,91.38
2019-02-12T22:45:14.523Z,91.36
2019-02-12T22:50:19.754Z,90.22
2019-02-12T22:55:24.303Z,89.39
2019-02-12T23:00:34.715Z,89.78
2019-02-12T23:05:39.242Z,89.45
2019-02-12T23:10:43.463Z,89.87
2019-02-12T23:15:47.515Z,89.09
2019-02-12T23:20:52.221Z,89.09
2019-02-12T23:25:56.331Z,89.46
2019-02-12T23:31:00.547Z,89.93
2019-02-12T23:36:04.992Z,89.87
2019-02-12T23:41:09.425Z,90.76
2019-02-12T23:46:13.639Z,91.13
2019-02-12T23:51:17.807Z,92.04
2019-02-12T23:56:21.878Z,93.04
